createdAt,value
2024-05-09T00:00:40.706Z,96.60
2024-05-09T00:01:44.364Z,96.91
2024-05-09T00:02:46.547Z,96.81
2024-05-09T00:03:49.027Z,96.90
2024-05-09T00:04:51.328Z,97.28
2024-05-09T00:05:53.359Z,97.23
2024-05-09T00:06:55.385Z,97.52
2024-05-09T00:07:57.376Z,97.11
2024-05-09T00:08:59.346Z,96.96
2024-05-09T00:10:01.294Z,96.97
2024-05-09T00:11:03.369Z,96.66
2024-05-09T00:12:05.779Z,96.32
2024-05-09T00:13:08.280Z,96.09
2024-05-09T00:14:10.775Z,95.92
2024-05-09T00:15:13.043Z,95.71
2024-05-09T00:16:14.935Z,95.56
2024-05-09T00:17:16.964Z,95.73
2024-05-09T00:18:19.132Z,95.45
2024-05-09T00:19:21.465Z,95.25
2024-05-09T00:20:28.590Z,94.90
2024-05-09T00:21:41.493Z,94.80
2024-05-09T00:22:43.930Z,94.70
2024-05-09T00:23:45.952Z,94.88
2024-05-09T00:24:48.203Z,94.79
2024-05-09T00:25:50.180Z,94.81
2024-05-09T00:26:52.078Z,94.51
2024-05-09T00:27:54.007Z,94.53
2024-05-09T00:28:56.083Z,94.55
2024-05-09T00:29:58.042Z,94.50
2024-05-09T00:31:00.003Z,94.23
2024-05-09T00:32:02.142Z,93.86
2024-05-09T00:33:06.511Z,93.69
2024-05-09T00:34:10.296Z,93.59
2024-05-09T00:35:12.404Z,93.36
2024-05-09T00:36:14.260Z,93.55
2024-05-09T00:37:19.914Z,93.44
2024-05-09T00:38:22.030Z,93.35
2024-05-09T00:39:23.975Z,93.65
2024-05-09T00:40:35.511Z,93.52
2024-05-09T00:41:42.546Z,93.81
2024-05-09T00:42:47.001Z,93.68
2024-05-09T00:43:48.982Z,93.61
2024-05-09T00:44:54.077Z,93.52
2024-05-09T00:45:57.880Z,93.67
2024-05-09T00:46:59.885Z,93.92
2024-05-09T00:48:03.591Z,93.85
2024-05-09T00:49:06.679Z,94.48
2024-05-09T00:50:15.754Z,94.42
2024-05-09T00:51:21.949Z,94.59
2024-05-09T00:52:25.228Z,94.41
2024-05-09T00:53:27.313Z,94.51
2024-05-09T00:54:30.123Z,94.56
2024-05-09T00:55:32.483Z,94.47
2024-05-09T00:56:35.762Z,94.54
2024-05-09T00:57:39.843Z,94.50
2024-05-09T00:58:42.268Z,94.60
2024-05-09T00:59:44.387Z,94.59
2024-05-09T01:00:46.779Z,94.62
2024-05-09T01:01:50.050Z,94.31
2024-05-09T01:02:52.525Z,94.52
2024-05-09T01:03:54.770Z,94.37
2024-05-09T01:04:56.993Z,94.31
2024-05-09T01:05:59.060Z,93.94
2024-05-09T01:07:01.122Z,94.03
2024-05-09T01:08:03.358Z,94.28
2024-05-09T01:09:05.928Z,94.32
2024-05-09T01:10:14.063Z,94.88
2024-05-09T01:11:23.698Z,94.80
2024-05-09T01:12:25.733Z,94.49
2024-05-09T01:13:27.660Z,94.72
2024-05-09T01:14:29.799Z,94.58
2024-05-09T01:15:31.859Z,94.28
2024-05-09T01:16:34.182Z,94.62
2024-05-09T01:17:36.356Z,95.11
2024-05-09T01:18:38.682Z,95.18
2024-05-09T01:19:40.848Z,95.22
2024-05-09T01:20:44.833Z,95.08
2024-05-09T01:21:47.647Z,94.99
2024-05-09T01:22:51.505Z,94.91
2024-05-09T01:23:53.344Z,94.90
2024-05-09T01:24:55.299Z,94.50
2024-05-09T01:25:57.260Z,94.52
2024-05-09T01:26:59.331Z,94.23
2024-05-09T01:28:01.651Z,93.86
2024-05-09T01:29:03.941Z,94.13
2024-05-09T01:30:09.537Z,94.04
2024-05-09T01:31:16.884Z,94.20
2024-05-09T01:32:18.832Z,94.13
2024-05-09T01:33:20.929Z,94.12
2024-05-09T01:34:22.968Z,94.19
2024-05-09T01:35:24.876Z,93.93
2024-05-09T01:36:27.204Z,94.11
2024-05-09T01:37:29.128Z,93.82
2024-05-09T01:38:31.243Z,94.02
2024-05-09T01:39:33.528Z,93.91
2024-05-09T01:40:38.919Z,93.80
2024-05-09T01:41:42.535Z,93.85
2024-05-09T01:42:44.539Z,94.06
2024-05-09T01:43:46.495Z,93.92
2024-05-09T01:44:48.404Z,93.66
2024-05-09T01:45:50.351Z,93.96
2024-05-09T01:46:52.744Z,93.98
2024-05-09T01:47:55.293Z,94.20
2024-05-09T01:48:57.920Z,94.09
2024-05-09T01:49:59.831Z,94.26
2024-05-09T01:51:01.906Z,94.06
2024-05-09T01:52:03.937Z,93.82
2024-05-09T01:53:06.040Z,93.85
2024-05-09T01:54:07.942Z,93.60
2024-05-09T01:55:10.112Z,93.69
2024-05-09T01:56:12.213Z,93.35
2024-05-09T01:57:14.306Z,93.39
2024-05-09T01:58:16.360Z,93.27
2024-05-09T01:59:18.457Z,92.89
2024-05-09T02:00:30.227Z,93.30
2024-05-09T02:01:56.426Z,93.76
2024-05-09T02:02:59.893Z,94.40
2024-05-09T02:04:02.341Z,94.64
2024-05-09T02:05:04.857Z,94.87
2024-05-09T02:06:06.912Z,94.64
2024-05-09T02:07:09.231Z,94.69
2024-05-09T02:08:18.523Z,94.57
2024-05-09T02:09:21.057Z,94.38
2024-05-09T02:10:30.259Z,94.13
2024-05-09T02:11:41.159Z,94.16
2024-05-09T02:12:43.517Z,93.82
2024-05-09T02:13:45.539Z,93.68
2024-05-09T02:14:47.523Z,93.34
2024-05-09T02:15:52.574Z,93.29
2024-05-09T02:16:54.562Z,93.56
2024-05-09T02:17:56.632Z,93.11
2024-05-09T02:18:59.026Z,93.02
2024-05-09T02:20:01.300Z,92.46
2024-05-09T02:21:03.533Z,92.93
2024-05-09T02:22:05.702Z,92.82
2024-05-09T02:23:08.633Z,92.70
2024-05-09T02:24:10.971Z,92.81
2024-05-09T02:25:12.934Z,92.70
2024-05-09T02:26:14.953Z,92.66
2024-05-09T02:27:16.974Z,92.93
2024-05-09T02:28:21.149Z,92.89
2024-05-09T02:29:23.106Z,93.20
2024-05-09T02:30:35.024Z,93.00
2024-05-09T02:31:42.127Z,92.73
2024-05-09T02:32:44.025Z,92.58
2024-05-09T02:33:46.358Z,92.46
2024-05-09T02:34:48.590Z,92.26
2024-05-09T02:35:50.818Z,92.38
2024-05-09T02:36:56.544Z,92.47
2024-05-09T02:37:58.579Z,92.35
2024-05-09T02:39:00.570Z,92.04
2024-05-09T02:40:05.744Z,92.34
2024-05-09T02:41:09.151Z,92.37
2024-05-09T02:42:11.062Z,92.52
2024-05-09T02:43:13.421Z,92.40
2024-05-09T02:44:15.351Z,92.34
2024-05-09T02:45:17.674Z,92.21
2024-05-09T02:46:19.519Z,92.29
2024-05-09T02:47:21.703Z,92.26
2024-05-09T02:48:23.982Z,92.32
2024-05-09T02:49:26.446Z,92.31
2024-05-09T02:50:34.623Z,92.16
2024-05-09T02:51:40.797Z,92.47
2024-05-09T02:52:42.786Z,92.57
2024-05-09T02:53:44.716Z,92.08
2024-05-09T02:54:46.660Z,92.43
2024-05-09T02:55:48.641Z,92.17
2024-05-09T02:56:50.584Z,92.51
2024-05-09T02:57:52.607Z,92.60
2024-05-09T02:58:54.638Z,92.42
2024-05-09T02:59:56.591Z,92.85
2024-05-09T03:00:58.946Z,92.74
2024-05-09T03:02:01.054Z,92.57
2024-05-09T03:03:03.225Z,92.37
2024-05-09T03:04:05.560Z,92.28
2024-05-09T03:05:07.645Z,92.35
2024-05-09T03:06:09.694Z,91.95
2024-05-09T03:07:11.897Z,91.67
2024-05-09T03:08:14.065Z,91.69
2024-05-09T03:09:17.476Z,91.69
2024-05-09T03:10:25.401Z,91.87
2024-05-09T03:11:30.782Z,92.09
2024-05-09T03:12:33.261Z,91.78
2024-05-09T03:13:36.051Z,92.34
2024-05-09T03:14:38.274Z,91.95
2024-05-09T03:15:40.393Z,91.71
2024-05-09T03:16:42.383Z,92.01
2024-05-09T03:17:44.448Z,91.94
2024-05-09T03:18:46.894Z,91.84
2024-05-09T03:19:48.970Z,92.10
2024-05-09T03:20:50.989Z,92.04
2024-05-09T03:21:52.819Z,91.58
2024-05-09T03:22:56.768Z,91.38
2024-05-09T03:23:58.943Z,91.38
2024-05-09T03:25:00.909Z,91.37
2024-05-09T03:26:03.038Z,91.80
2024-05-09T03:27:04.925Z,91.41
2024-05-09T03:28:07.092Z,91.36
2024-05-09T03:29:09.073Z,91.44
2024-05-09T03:30:15.484Z,91.52
2024-05-09T03:31:20.643Z,91.94
2024-05-09T03:32:22.734Z,92.02
2024-05-09T03:33:24.816Z,92.40
2024-05-09T03:34:27.066Z,92.11
2024-05-09T03:35:29.291Z,91.95
2024-05-09T03:36:31.441Z,92.38
2024-05-09T03:37:33.318Z,92.20
2024-05-09T03:38:39.072Z,91.90
2024-05-09T03:39:40.998Z,92.09
2024-05-09T03:40:46.862Z,92.46
2024-05-09T03:41:49.452Z,92.00
2024-05-09T03:42:51.463Z,92.26
2024-05-09T03:43:53.416Z,92.22
2024-05-09T03:44:55.296Z,92.35
2024-05-09T03:45:57.595Z,92.41
2024-05-09T03:46:59.618Z,92.76
2024-05-09T03:48:01.612Z,92.67
2024-05-09T03:49:03.635Z,93.28
2024-05-09T03:50:06.027Z,93.29
2024-05-09T03:51:09.980Z,93.97
2024-05-09T03:52:12.027Z,94.06
2024-05-09T03:53:14.816Z,94.89
2024-05-09T03:54:16.769Z,95.01
2024-05-09T03:55:19.218Z,95.13
2024-05-09T03:56:21.266Z,96.29
2024-05-09T03:57:23.162Z,96.04
2024-05-09T03:58:25.073Z,96.31
2024-05-09T03:59:27.117Z,97.08
2024-05-09T04:00:36.843Z,96.93
2024-05-09T04:01:40.959Z,97.12
2024-05-09T04:02:43.846Z,96.78
2024-05-09T04:03:46.310Z,96.69
2024-05-09T04:04:48.592Z,95.99
2024-05-09T04:05:50.611Z,96.12
2024-05-09T04:06:52.720Z,95.89
2024-05-09T04:07:55.225Z,95.36
2024-05-09T04:08:57.095Z,94.88
2024-05-09T04:09:59.212Z,94.48
2024-05-09T04:11:01.314Z,94.50
2024-05-09T04:12:03.386Z,94.25
2024-05-09T04:13:05.441Z,93.79
2024-05-09T04:14:07.498Z,93.91
2024-05-09T04:15:12.863Z,93.63
2024-05-09T04:16:15.385Z,93.70
2024-05-09T04:17:17.362Z,93.73
2024-05-09T04:18:19.427Z,93.41
2024-05-09T04:19:21.688Z,93.28
2024-05-09T04:20:33.376Z,93.13
2024-05-09T04:21:40.413Z,93.25
2024-05-09T04:22:42.343Z,92.99
2024-05-09T04:23:44.280Z,92.24
2024-05-09T04:24:46.226Z,92.42
2024-05-09T04:25:48.178Z,92.58
2024-05-09T04:26:50.254Z,92.34
2024-05-09T04:27:56.006Z,92.31
2024-05-09T04:28:58.418Z,92.20
2024-05-09T04:30:00.699Z,92.35
2024-05-09T04:31:02.576Z,92.29
2024-05-09T04:32:05.668Z,91.55
2024-05-09T04:33:09.521Z,91.94
2024-05-09T04:34:13.810Z,92.37
2024-05-09T04:35:18.556Z,91.57
2024-05-09T04:36:20.628Z,91.53
2024-05-09T04:37:22.843Z,92.02
2024-05-09T04:38:24.948Z,91.63
2024-05-09T04:39:26.853Z,90.95
2024-05-09T04:40:33.931Z,91.35
2024-05-09T04:41:38.862Z,92.04
2024-05-09T04:42:41.593Z,92.50
2024-05-09T04:43:43.579Z,92.16
2024-05-09T04:44:45.501Z,92.26
2024-05-09T04:45:47.515Z,92.56
2024-05-09T04:46:49.595Z,92.12
2024-05-09T04:47:51.956Z,92.15
2024-05-09T04:48:54.666Z,91.83
2024-05-09T04:49:57.178Z,92.06
2024-05-09T04:50:59.146Z,92.48
2024-05-09T04:52:01.100Z,93.04
2024-05-09T04:53:03.223Z,93.05
2024-05-09T04:54:05.604Z,93.14
2024-05-09T04:55:08.766Z,92.82
2024-05-09T04:56:10.758Z,92.82
2024-05-09T04:57:12.675Z,92.65
2024-05-09T04:58:14.534Z,92.73
2024-05-09T04:59:16.504Z,92.67
2024-05-09T05:00:28.096Z,92.63
2024-05-09T05:01:34.797Z,92.54
2024-05-09T05:02:37.614Z,92.31
2024-05-09T05:03:40.026Z,92.65
2024-05-09T05:04:42.721Z,92.58
2024-05-09T05:05:46.175Z,92.35
2024-05-09T05:06:48.803Z,93.04
2024-05-09T05:07:50.849Z,92.96
2024-05-09T05:08:52.817Z,92.75
2024-05-09T05:09:54.737Z,93.22
2024-05-09T05:10:56.750Z,93.67
2024-05-09T05:12:00.271Z,93.51
2024-05-09T05:13:20.414Z,93.98
2024-05-09T05:14:23.864Z,94.60
2024-05-09T05:15:25.815Z,94.18
2024-05-09T05:16:27.859Z,94.25
2024-05-09T05:17:29.898Z,94.65
2024-05-09T05:18:32.034Z,94.04
2024-05-09T05:19:34.210Z,94.59
2024-05-09T05:20:36.440Z,93.96
2024-05-09T05:21:38.404Z,93.59
2024-05-09T05:22:43.363Z,93.26
2024-05-09T05:23:45.315Z,92.81
2024-05-09T05:24:47.323Z,92.65
2024-05-09T05:25:51.277Z,92.55
2024-05-09T05:26:53.331Z,92.26
2024-05-09T05:27:55.213Z,92.66
2024-05-09T05:28:57.275Z,92.39
2024-05-09T05:29:59.207Z,92.60
2024-05-09T05:31:00.990Z,91.76
2024-05-09T05:32:02.947Z,91.66
2024-05-09T05:33:06.673Z,91.31
2024-05-09T05:34:09.202Z,91.30
2024-05-09T05:35:11.559Z,91.65
2024-05-09T05:36:13.516Z,91.78
2024-05-09T05:37:15.449Z,91.36
2024-05-09T05:38:17.519Z,91.47
2024-05-09T05:39:19.440Z,91.24
2024-05-09T05:40:28.508Z,91.42
2024-05-09T05:41:37.718Z,91.50
2024-05-09T05:42:39.835Z,91.62
2024-05-09T05:43:41.836Z,91.56
2024-05-09T05:44:43.761Z,91.58
2024-05-09T05:45:46.340Z,91.68
2024-05-09T05:46:48.276Z,91.29
2024-05-09T05:47:50.630Z,91.14
2024-05-09T05:48:53.088Z,91.16
2024-05-09T05:49:55.338Z,91.41
2024-05-09T05:50:57.880Z,91.46
2024-05-09T05:52:00.548Z,92.41
2024-05-09T05:53:02.480Z,92.59
2024-05-09T05:54:04.491Z,92.96
2024-05-09T05:55:06.506Z,93.08
2024-05-09T05:56:08.530Z,93.26
2024-05-09T05:57:10.447Z,93.77
2024-05-09T05:58:12.714Z,93.46
2024-05-09T05:59:15.633Z,93.92
2024-05-09T06:00:25.903Z,94.05
2024-05-09T06:01:32.530Z,94.27
2024-05-09T06:02:35.352Z,94.31
2024-05-09T06:03:37.649Z,94.44
2024-05-09T06:04:39.927Z,94.67
2024-05-09T06:05:46.255Z,94.03
2024-05-09T06:06:48.818Z,93.89
2024-05-09T06:07:50.786Z,93.51
2024-05-09T06:08:52.866Z,93.27
2024-05-09T06:09:56.454Z,92.71
2024-05-09T06:10:58.528Z,92.07
2024-05-09T06:12:00.715Z,91.84
2024-05-09T06:13:03.135Z,91.69
2024-05-09T06:14:05.938Z,91.43
2024-05-09T06:15:07.987Z,91.43
2024-05-09T06:16:10.061Z,91.40
2024-05-09T06:17:12.138Z,92.38
2024-05-09T06:18:14.664Z,92.27
2024-05-09T06:19:17.256Z,91.54
2024-05-09T06:20:24.045Z,91.31
2024-05-09T06:21:33.832Z,91.25
2024-05-09T06:22:35.760Z,91.06
2024-05-09T06:23:45.511Z,90.91
2024-05-09T06:24:47.767Z,91.20
2024-05-09T06:25:49.684Z,90.90
2024-05-09T06:26:51.570Z,91.55
2024-05-09T06:27:53.465Z,91.41
2024-05-09T06:28:55.543Z,91.59
2024-05-09T06:29:57.508Z,90.96
2024-05-09T06:31:01.525Z,90.74
2024-05-09T06:32:03.616Z,91.41
2024-05-09T06:33:06.235Z,91.81
2024-05-09T06:34:08.672Z,92.11
2024-05-09T06:35:10.809Z,91.71
2024-05-09T06:36:12.857Z,91.19
2024-05-09T06:37:14.665Z,90.93
2024-05-09T06:38:16.697Z,91.23
2024-05-09T06:39:18.557Z,91.44
2024-05-09T06:40:25.721Z,91.36
2024-05-09T06:41:36.610Z,91.47
2024-05-09T06:42:38.598Z,90.95
2024-05-09T06:43:40.901Z,90.76
2024-05-09T06:44:42.799Z,90.42
2024-05-09T06:45:46.280Z,89.80
2024-05-09T06:46:48.216Z,89.64
2024-05-09T06:47:50.350Z,88.84
2024-05-09T06:48:53.220Z,88.60
2024-05-09T06:49:55.792Z,88.71
2024-05-09T06:50:58.023Z,89.19
2024-05-09T06:52:00.011Z,89.40
2024-05-09T06:53:02.053Z,88.99
2024-05-09T06:54:06.336Z,88.62
2024-05-09T06:55:08.274Z,88.13
2024-05-09T06:56:10.364Z,87.80
2024-05-09T06:57:12.279Z,88.30
2024-05-09T06:58:14.258Z,87.17
2024-05-09T06:59:16.233Z,86.95
2024-05-09T07:00:26.907Z,87.05
2024-05-09T07:01:33.651Z,86.13
2024-05-09T07:02:35.870Z,86.24
2024-05-09T07:03:37.969Z,86.61
2024-05-09T07:04:40.027Z,84.75
2024-05-09T07:05:42.100Z,85.54
2024-05-09T07:06:44.168Z,84.41
2024-05-09T07:07:46.223Z,84.14
2024-05-09T07:08:48.790Z,84.63
2024-05-09T07:09:52.410Z,85.25
2024-05-09T07:10:54.698Z,85.14
2024-05-09T07:11:56.790Z,84.58
2024-05-09T07:12:58.806Z,84.16
2024-05-09T07:14:00.753Z,84.56
2024-05-09T07:15:02.646Z,84.52
2024-05-09T07:16:04.772Z,84.79
2024-05-09T07:17:06.907Z,84.74
2024-05-09T07:18:13.811Z,85.07
2024-05-09T07:19:16.550Z,84.66
2024-05-09T07:20:23.747Z,85.22
2024-05-09T07:21:34.792Z,85.36
2024-05-09T07:22:36.908Z,84.72
2024-05-09T07:23:38.984Z,84.46
2024-05-09T07:24:40.914Z,84.38
2024-05-09T07:25:43.073Z,84.66
2024-05-09T07:26:45.263Z,83.36
2024-05-09T07:27:47.274Z,83.85
2024-05-09T07:28:49.289Z,85.19
2024-05-09T07:29:51.697Z,85.46
2024-05-09T07:30:53.620Z,85.58
2024-05-09T07:31:55.777Z,85.89
2024-05-09T07:32:58.385Z,84.84
2024-05-09T07:34:01.588Z,86.12
2024-05-09T07:35:03.833Z,85.96
2024-05-09T07:36:05.908Z,86.86
2024-05-09T07:37:12.878Z,86.70
2024-05-09T07:38:15.064Z,86.73
2024-05-09T07:39:17.244Z,86.35
2024-05-09T07:40:28.546Z,86.24
2024-05-09T07:41:37.886Z,86.52
2024-05-09T07:42:39.807Z,86.43
2024-05-09T07:43:41.779Z,86.80
2024-05-09T07:44:43.732Z,86.22
2024-05-09T07:45:52.287Z,86.40
2024-05-09T07:53:30.313Z,85.04
2024-05-09T07:53:49.579Z,84.83
2024-05-09T07:54:54.519Z,83.69
2024-05-09T07:55:57.000Z,82.11
2024-05-09T07:56:59.592Z,81.87
2024-05-09T07:58:02.145Z,81.92
2024-05-09T07:59:04.081Z,80.75
2024-05-09T08:00:06.759Z,80.57
2024-05-09T08:01:09.041Z,79.29
2024-05-09T08:02:11.684Z,78.92
2024-05-09T08:03:13.842Z,79.18
2024-05-09T08:04:15.840Z,79.34
2024-05-09T08:05:17.853Z,79.17
2024-05-09T08:06:19.740Z,79.66
2024-05-09T08:07:21.647Z,79.30
2024-05-09T08:08:23.667Z,79.80
2024-05-09T08:09:25.588Z,80.01
2024-05-09T08:10:29.141Z,80.68
2024-05-09T08:11:32.462Z,79.60
2024-05-09T08:12:34.678Z,80.61
2024-05-09T08:13:36.768Z,81.46
2024-05-09T08:14:38.667Z,81.68
2024-05-09T08:15:40.664Z,80.89
2024-05-09T08:16:42.604Z,80.92
2024-05-09T08:17:44.517Z,81.13
2024-05-09T08:18:46.995Z,78.49
2024-05-09T08:19:49.099Z,77.17
2024-05-09T08:20:51.132Z,77.60
2024-05-09T08:21:53.029Z,77.65
2024-05-09T08:22:55.005Z,77.97
2024-05-09T08:23:56.966Z,78.83
2024-05-09T08:24:59.246Z,77.16
2024-05-09T08:26:01.157Z,77.84
2024-05-09T08:27:03.007Z,78.30
2024-05-09T08:28:05.463Z,76.66
2024-05-09T08:29:07.566Z,76.13
2024-05-09T08:30:15.590Z,77.28
2024-05-09T08:31:24.097Z,78.27
2024-05-09T08:32:27.719Z,78.31
2024-05-09T08:33:30.397Z,78.92
2024-05-09T08:34:32.430Z,75.45
2024-05-09T08:35:34.681Z,74.06
2024-05-09T08:36:36.942Z,74.99
2024-05-09T08:37:40.666Z,73.59
2024-05-09T08:38:42.955Z,72.73
2024-05-09T08:39:44.919Z,73.89
2024-05-09T08:40:47.204Z,74.08
2024-05-09T08:41:50.322Z,74.18
2024-05-09T08:42:56.296Z,73.36
2024-05-09T08:43:58.381Z,74.27
2024-05-09T08:45:00.328Z,75.59
2024-05-09T08:46:02.585Z,76.03
2024-05-09T08:47:08.762Z,75.97
2024-05-09T08:48:12.218Z,77.09
2024-05-09T08:49:15.960Z,76.99
2024-05-09T08:50:31.413Z,73.61
2024-05-09T08:51:39.708Z,75.96
2024-05-09T08:52:41.768Z,74.18
2024-05-09T08:53:43.766Z,72.81
2024-05-09T08:54:46.067Z,73.81
2024-05-09T08:55:51.502Z,74.29
2024-05-09T08:56:53.537Z,70.83
2024-05-09T08:57:55.910Z,73.13
2024-05-09T08:59:01.270Z,71.84
2024-05-09T09:00:07.900Z,72.82
2024-05-09T09:01:12.662Z,71.62
2024-05-09T09:02:15.360Z,73.35
2024-05-09T09:03:18.544Z,74.21
2024-05-09T09:04:22.229Z,75.07
2024-05-09T09:05:27.041Z,73.78
2024-05-09T09:06:29.957Z,73.98
2024-05-09T09:07:33.696Z,73.39
2024-05-09T09:08:38.743Z,72.36
2024-05-09T09:09:43.800Z,73.86
2024-05-09T09:10:47.884Z,73.39
2024-05-09T09:11:50.181Z,72.81
2024-05-09T09:12:59.068Z,73.94
2024-05-09T09:14:01.031Z,72.23
2024-05-09T09:15:02.949Z,72.45
2024-05-09T09:16:05.068Z,73.62
2024-05-09T09:17:14.159Z,74.03
2024-05-09T09:18:16.815Z,71.71
2024-05-09T09:19:19.807Z,72.74
2024-05-09T09:20:28.746Z,72.28
2024-05-09T09:21:36.123Z,72.02
2024-05-09T09:22:38.025Z,73.29
2024-05-09T09:23:40.167Z,72.24
2024-05-09T09:24:42.138Z,70.56
2024-05-09T09:25:44.046Z,72.59
2024-05-09T09:26:46.097Z,68.36
2024-05-09T09:27:48.375Z,70.65
2024-05-09T09:28:50.347Z,66.93
2024-05-09T09:29:52.332Z,68.72
2024-05-09T09:30:54.265Z,71.06
2024-05-09T09:31:59.267Z,70.29
2024-05-09T09:33:01.291Z,67.92
2024-05-09T09:34:07.494Z,64.26
2024-05-09T09:35:09.749Z,64.93
2024-05-09T09:36:14.729Z,66.67
2024-05-09T09:37:20.583Z,68.16
2024-05-09T09:38:23.582Z,66.71
2024-05-09T09:39:27.866Z,66.14
2024-05-09T09:40:35.835Z,65.39
2024-05-09T09:41:42.811Z,65.75
2024-05-09T09:42:48.479Z,66.51
2024-05-09T09:43:50.543Z,67.46
2024-05-09T09:45:01.927Z,64.24
2024-05-09T09:46:11.572Z,65.61
2024-05-09T09:47:15.494Z,64.34
2024-05-09T09:48:17.634Z,66.31
2024-05-09T09:49:19.807Z,61.83
2024-05-09T09:50:27.926Z,63.76
2024-05-09T09:51:36.644Z,64.90
2024-05-09T09:52:39.472Z,66.45
2024-05-09T09:53:42.876Z,66.35
2024-05-09T09:54:46.135Z,63.24
2024-05-09T09:55:48.759Z,63.88
2024-05-09T09:56:51.929Z,65.53
2024-05-09T09:57:56.186Z,63.08
2024-05-09T09:58:58.638Z,62.39
2024-05-09T10:00:00.897Z,61.05
2024-05-09T10:01:02.917Z,62.28
2024-05-09T10:02:05.009Z,62.57
2024-05-09T10:03:07.136Z,60.42
2024-05-09T10:04:10.011Z,60.08
2024-05-09T10:05:12.201Z,61.09
2024-05-09T10:06:15.393Z,62.37
2024-05-09T10:07:19.798Z,58.40
2024-05-09T10:08:23.613Z,60.64
2024-05-09T10:09:26.214Z,61.49
2024-05-09T10:10:32.405Z,61.52
2024-05-09T10:11:41.921Z,65.73
2024-05-09T10:13:08.689Z,63.07
2024-05-09T10:14:10.929Z,63.03
2024-05-09T10:15:12.905Z,61.60
2024-05-09T10:16:20.645Z,63.20
2024-05-09T10:17:23.140Z,60.58
2024-05-09T10:18:28.526Z,58.52
2024-05-09T10:19:34.396Z,56.97
2024-05-09T10:20:42.627Z,61.72
2024-05-09T10:21:47.650Z,59.42
2024-05-09T10:22:50.748Z,58.61
2024-05-09T10:24:00.136Z,61.55
2024-05-09T10:25:06.313Z,60.55
2024-05-09T10:26:08.354Z,59.38
2024-05-09T10:27:10.347Z,58.74
2024-05-09T10:28:12.625Z,60.37
2024-05-09T10:29:16.046Z,57.59
2024-05-09T10:30:29.747Z,55.29
2024-05-09T10:31:39.916Z,56.78
2024-05-09T10:32:42.066Z,52.74
2024-05-09T10:33:52.035Z,57.09
2024-05-09T10:35:16.739Z,54.46
2024-05-09T10:36:22.667Z,55.18
2024-05-09T10:37:25.210Z,56.48
2024-05-09T10:38:27.485Z,53.86
2024-05-09T10:39:35.307Z,51.14
2024-05-09T10:40:38.111Z,51.35
2024-05-09T10:41:40.586Z,53.50
2024-05-09T10:42:42.707Z,52.47
2024-05-09T10:43:44.875Z,51.00
2024-05-09T10:44:47.411Z,52.97
2024-05-09T10:45:49.939Z,52.28
2024-05-09T10:46:54.899Z,50.93
2024-05-09T10:47:57.295Z,50.90
2024-05-09T10:49:01.687Z,49.81
2024-05-09T10:50:15.663Z,51.24
2024-05-09T10:51:24.944Z,51.99
2024-05-09T10:52:26.959Z,51.53
2024-05-09T10:53:29.194Z,50.70
2024-05-09T10:54:40.663Z,50.51
2024-05-09T10:55:42.848Z,50.56
2024-05-09T10:56:44.862Z,49.25
2024-05-09T10:57:46.763Z,49.21
2024-05-09T10:58:51.861Z,52.06
2024-05-09T10:59:53.805Z,49.05
2024-05-09T11:00:56.092Z,46.03
2024-05-09T11:01:59.188Z,50.02
2024-05-09T11:03:01.302Z,50.62
2024-05-09T11:04:04.408Z,47.89
2024-05-09T11:05:06.733Z,49.51
2024-05-09T11:06:10.043Z,46.93
2024-05-09T11:07:16.226Z,46.78
2024-05-09T11:08:19.246Z,46.06
2024-05-09T11:09:21.320Z,46.91
2024-05-09T11:10:27.873Z,45.17
2024-05-09T11:11:35.871Z,44.81
2024-05-09T11:12:38.074Z,46.72
2024-05-09T11:13:40.424Z,45.30
2024-05-09T11:14:52.388Z,42.53
2024-05-09T11:15:54.372Z,44.24
2024-05-09T11:17:06.991Z,46.36
2024-05-09T11:18:24.242Z,46.46
2024-05-09T11:19:31.097Z,44.33
2024-05-09T11:20:36.966Z,46.66
2024-05-09T11:21:39.907Z,46.98
2024-05-09T11:22:42.117Z,42.82
2024-05-09T11:23:44.093Z,43.62
2024-05-09T11:24:46.044Z,39.96
2024-05-09T11:25:50.668Z,39.29
2024-05-09T11:26:52.690Z,43.64
2024-05-09T11:27:58.438Z,43.93
2024-05-09T11:29:00.502Z,43.53
2024-05-09T11:30:03.233Z,42.16
2024-05-09T11:31:10.530Z,41.93
2024-05-09T11:32:15.230Z,43.66
2024-05-09T11:33:18.588Z,45.69
2024-05-09T11:34:20.668Z,44.48
2024-05-09T11:35:22.637Z,43.64
2024-05-09T11:36:24.807Z,44.67
2024-05-09T11:37:27.019Z,39.85
2024-05-09T11:38:28.989Z,41.11
2024-05-09T11:39:31.192Z,40.96
2024-05-09T11:40:34.599Z,43.01
2024-05-09T11:41:37.278Z,42.26
2024-05-09T11:42:39.225Z,42.76
2024-05-09T11:43:41.136Z,42.14
2024-05-09T11:44:43.073Z,43.42
2024-05-09T11:45:45.070Z,43.10
2024-05-09T11:46:47.293Z,40.57
2024-05-09T11:47:49.925Z,39.34
2024-05-09T11:48:52.290Z,41.98
2024-05-09T11:49:56.798Z,40.70
2024-05-09T11:50:58.733Z,40.23
2024-05-09T11:52:00.751Z,42.00
2024-05-09T11:53:02.782Z,40.63
2024-05-09T11:54:04.794Z,39.01
2024-05-09T11:55:07.422Z,39.91
2024-05-09T11:56:11.830Z,39.27
2024-05-09T11:57:13.796Z,42.00
2024-05-09T11:58:18.441Z,40.47
2024-05-09T11:59:21.266Z,42.63
2024-05-09T12:00:33.734Z,41.44
2024-05-09T12:01:39.436Z,43.55
2024-05-09T12:02:41.732Z,41.82
2024-05-09T12:03:43.785Z,40.09
2024-05-09T12:04:47.358Z,40.75
2024-05-09T12:05:49.629Z,38.86
2024-05-09T12:06:52.196Z,38.63
2024-05-09T12:07:56.633Z,39.03
2024-05-09T12:08:58.698Z,40.65
2024-05-09T12:10:00.708Z,40.84
2024-05-09T12:11:02.845Z,41.41
2024-05-09T12:12:05.240Z,39.86
2024-05-09T12:13:07.874Z,35.56
2024-05-09T12:14:09.951Z,39.12
2024-05-09T12:15:12.755Z,38.62
2024-05-09T12:16:14.937Z,37.55
2024-05-09T12:17:17.383Z,38.69
2024-05-09T12:18:19.322Z,38.17
2024-05-09T12:19:21.247Z,40.08
2024-05-09T12:20:28.881Z,39.92
2024-05-09T12:21:38.071Z,40.61
2024-05-09T12:22:40.012Z,37.34
2024-05-09T12:23:42.278Z,38.79
2024-05-09T12:24:44.312Z,39.66
2024-05-09T12:25:46.273Z,37.13
2024-05-09T12:26:48.121Z,39.55
2024-05-09T12:27:50.259Z,38.70
2024-05-09T12:28:52.242Z,38.51
2024-05-09T12:29:54.163Z,41.16
2024-05-09T12:30:56.125Z,37.81
2024-05-09T12:31:58.188Z,37.42
2024-05-09T12:33:00.353Z,38.76
2024-05-09T12:34:02.533Z,37.34
2024-05-09T12:35:04.628Z,39.49
2024-05-09T12:36:06.798Z,37.74
2024-05-09T12:37:08.735Z,39.65
2024-05-09T12:38:10.679Z,35.60
2024-05-09T12:39:12.635Z,39.32
2024-05-09T12:40:22.911Z,39.12
2024-05-09T12:41:32.797Z,39.76
2024-05-09T12:42:34.747Z,39.21
2024-05-09T12:43:36.814Z,39.50
2024-05-09T12:44:38.810Z,39.44
2024-05-09T12:45:40.912Z,40.48
2024-05-09T12:46:43.363Z,35.54
2024-05-09T12:47:45.480Z,37.06
2024-05-09T12:48:47.709Z,38.65
2024-05-09T12:49:50.139Z,36.94
2024-05-09T12:50:52.288Z,37.03
2024-05-09T12:51:54.805Z,39.01
2024-05-09T12:52:56.638Z,37.37
2024-05-09T12:53:58.541Z,35.90
2024-05-09T12:55:00.626Z,37.87
2024-05-09T12:56:04.385Z,37.13
2024-05-09T12:57:07.520Z,33.47
2024-05-09T12:58:09.515Z,34.94
2024-05-09T12:59:11.777Z,36.36
2024-05-09T13:00:23.410Z,34.34
2024-05-09T13:01:30.169Z,35.42
2024-05-09T13:02:32.509Z,35.17
2024-05-09T13:03:34.875Z,34.86
2024-05-09T13:04:37.382Z,34.94
2024-05-09T13:05:41.846Z,35.76
2024-05-09T13:06:44.077Z,35.44
2024-05-09T13:07:47.351Z,33.83
2024-05-09T13:08:49.330Z,38.08
2024-05-09T13:09:51.514Z,35.89
2024-05-09T13:10:54.190Z,32.86
2024-05-09T13:11:56.206Z,32.67
2024-05-09T13:12:58.286Z,34.98
2024-05-09T13:14:00.252Z,34.26
2024-05-09T13:15:02.140Z,35.10
2024-05-09T13:16:04.248Z,34.15
2024-05-09T13:17:06.261Z,36.22
2024-05-09T13:18:08.985Z,32.74
2024-05-09T13:19:10.990Z,36.11
2024-05-09T13:20:19.044Z,34.53
2024-05-09T13:21:28.592Z,35.11
2024-05-09T13:22:30.522Z,33.47
2024-05-09T13:23:32.517Z,34.11
2024-05-09T13:24:34.516Z,33.33
2024-05-09T13:25:37.819Z,34.02
2024-05-09T13:26:40.344Z,34.11
2024-05-09T13:27:42.278Z,32.63
2024-05-09T13:28:44.583Z,33.01
2024-05-09T13:29:46.464Z,33.97
2024-05-09T13:30:48.391Z,32.97
2024-05-09T13:31:50.323Z,32.41
2024-05-09T13:32:52.830Z,32.02
2024-05-09T13:33:54.863Z,34.39
2024-05-09T13:34:57.013Z,34.68
2024-05-09T13:35:58.979Z,34.48
2024-05-09T13:37:01.103Z,35.12
2024-05-09T13:38:04.257Z,35.74
2024-05-09T13:39:06.895Z,34.87
2024-05-09T13:40:12.105Z,33.28
2024-05-09T13:41:16.131Z,36.08
2024-05-09T13:42:18.030Z,36.08